sensor_id;sensor_type;location;lat;lon;timestamp;P1;durP1;ratioP1;P2;durP2;ratioP2
52494;SDS011;38405;53.212;5.660;2022-12-18T00:00:42;108.78;;;39.25;;
52494;SDS011;38405;53.212;5.660;2022-12-18T00:03:08;107.25;;;38.58;;
52494;SDS011;38405;53.212;5.660;2022-12-18T00:05:35;108.13;;;39.60;;
52494;SDS011;38405;53.212;5.660;2022-12-18T00:08:01;127.53;;;42.13;;
52494;SDS011;38405;53.212;5.660;2022-12-18T00:10:27;112.28;;;41.78;;
52494;SDS011;38405;53.212;5.660;2022-12-18T00:12:53;117.05;;;41.45;;
52494;SDS011;38405;53.212;5.660;2022-12-18T00:15:19;115.32;;;38.15;;
52494;SDS011;38405;53.212;5.660;2022-12-18T00:17:44;109.72;;;39.85;;
52494;SDS011;38405;53.212;5.660;2022-12-18T00:20:10;118.20;;;41.58;;
52494;SDS011;38405;53.212;5.660;2022-12-18T00:22:36;113.90;;;41.50;;
52494;SDS011;38405;53.212;5.660;2022-12-18T00:25:01;111.93;;;41.15;;
52494;SDS011;38405;53.212;5.660;2022-12-18T00:27:27;102.75;;;41.03;;
52494;SDS011;38405;53.212;5.660;2022-12-18T00:29:53;102.65;;;40.33;;
52494;SDS011;38405;53.212;5.660;2022-12-18T00:32:18;114.13;;;41.90;;
52494;SDS011;38405;53.212;5.660;2022-12-18T00:34:44;115.82;;;42.80;;
52494;SDS011;38405;53.212;5.660;2022-12-18T00:37:10;114.15;;;41.63;;
52494;SDS011;38405;53.212;5.660;2022-12-18T00:39:35;117.43;;;42.83;;
52494;SDS011;38405;53.212;5.660;2022-12-18T00:42:01;119.72;;;42.90;;
52494;SDS011;38405;53.212;5.660;2022-12-18T00:44:45;134.00;;;44.65;;
52494;SDS011;38405;53.212;5.660;2022-12-18T00:47:11;118.70;;;41.95;;
52494;SDS011;38405;53.212;5.660;2022-12-18T00:49:36;126.03;;;42.47;;
52494;SDS011;38405;53.212;5.660;2022-12-18T00:52:02;112.38;;;39.13;;
52494;SDS011;38405;53.212;5.660;2022-12-18T00:54:27;123.18;;;41.50;;
52494;SDS011;38405;53.212;5.660;2022-12-18T00:56:53;116.18;;;39.78;;
52494;SDS011;38405;53.212;5.660;2022-12-18T00:59:20;113.68;;;41.67;;
52494;SDS011;38405;53.212;5.660;2022-12-18T01:01:46;106.10;;;39.53;;
52494;SDS011;38405;53.212;5.660;2022-12-18T01:04:12;131.60;;;43.72;;
52494;SDS011;38405;53.212;5.660;2022-12-18T01:06:38;108.90;;;39.45;;
52494;SDS011;38405;53.212;5.660;2022-12-18T01:09:04;122.93;;;43.03;;
52494;SDS011;38405;53.212;5.660;2022-12-18T01:11:30;119.40;;;42.42;;
52494;SDS011;38405;53.212;5.660;2022-12-18T01:13:56;132.75;;;43.95;;
52494;SDS011;38405;53.212;5.660;2022-12-18T01:16:22;115.93;;;40.70;;
52494;SDS011;38405;53.212;5.660;2022-12-18T01:18:50;131.07;;;42.45;;
52494;SDS011;38405;53.212;5.660;2022-12-18T01:21:18;108.90;;;39.22;;
52494;SDS011;38405;53.212;5.660;2022-12-18T01:23:44;99.80;;;36.60;;
52494;SDS011;38405;53.212;5.660;2022-12-18T01:26:12;117.85;;;39.42;;
52494;SDS011;38405;53.212;5.660;2022-12-18T01:28:42;108.15;;;39.03;;
52494;SDS011;38405;53.212;5.660;2022-12-18T01:31:12;124.53;;;41.50;;
52494;SDS011;38405;53.212;5.660;2022-12-18T01:33:39;109.50;;;39.53;;
52494;SDS011;38405;53.212;5.660;2022-12-18T01:36:05;112.93;;;41.13;;
52494;SDS011;38405;53.212;5.660;2022-12-18T01:38:31;114.05;;;39.53;;
52494;SDS011;38405;53.212;5.660;2022-12-18T01:41:01;109.00;;;39.60;;
52494;SDS011;38405;53.212;5.660;2022-12-18T01:46:14;103.60;;;37.78;;
52494;SDS011;38405;53.212;5.660;2022-12-18T01:48:40;118.00;;;41.42;;
52494;SDS011;38405;53.212;5.660;2022-12-18T01:51:07;114.95;;;39.50;;
52494;SDS011;38405;53.212;5.660;2022-12-18T01:53:34;109.65;;;37.63;;
52494;SDS011;38405;53.212;5.660;2022-12-18T01:56:00;89.63;;;36.47;;
52494;SDS011;38405;53.212;5.660;2022-12-18T01:58:35;112.47;;;39.45;;
52494;SDS011;38405;53.212;5.660;2022-12-18T02:01:13;99.50;;;36.15;;
52494;SDS011;38405;53.212;5.660;2022-12-18T02:03:42;101.68;;;36.55;;
52494;SDS011;38405;53.212;5.660;2022-12-18T02:06:15;111.07;;;35.92;;
52494;SDS011;38405;53.212;5.660;2022-12-18T02:09:28;109.03;;;38.83;;
52494;SDS011;38405;53.212;5.660;2022-12-18T02:14:17;97.30;;;36.08;;
52494;SDS011;38405;53.212;5.660;2022-12-18T02:17:07;105.63;;;37.70;;
52494;SDS011;38405;53.212;5.660;2022-12-18T02:19:53;94.18;;;35.00;;
52494;SDS011;38405;53.212;5.660;2022-12-18T02:22:49;92.80;;;33.72;;
52494;SDS011;38405;53.212;5.660;2022-12-18T02:25:38;108.18;;;39.03;;
52494;SDS011;38405;53.212;5.660;2022-12-18T02:28:33;87.90;;;33.60;;
52494;SDS011;38405;53.212;5.660;2022-12-18T02:31:02;100.45;;;36.30;;
52494;SDS011;38405;53.212;5.660;2022-12-18T02:33:31;96.80;;;35.97;;
52494;SDS011;38405;53.212;5.660;2022-12-18T02:35:59;96.70;;;35.70;;
52494;SDS011;38405;53.212;5.660;2022-12-18T02:38:26;96.10;;;35.67;;
52494;SDS011;38405;53.212;5.660;2022-12-18T02:40:54;98.53;;;35.70;;
52494;SDS011;38405;53.212;5.660;2022-12-18T02:43:20;84.53;;;33.90;;
52494;SDS011;38405;53.212;5.660;2022-12-18T02:51:45;91.40;;;34.53;;
52494;SDS011;38405;53.212;5.660;2022-12-18T02:54:36;92.15;;;35.25;;
52494;SDS011;38405;53.212;5.660;2022-12-18T02:57:33;92.70;;;35.90;;
52494;SDS011;38405;53.212;5.660;2022-12-18T03:00:23;85.25;;;34.03;;
52494;SDS011;38405;53.212;5.660;2022-12-18T03:03:10;88.95;;;34.33;;
52494;SDS011;38405;53.212;5.660;2022-12-18T03:05:50;91.78;;;33.47;;
52494;SDS011;38405;53.212;5.660;2022-12-18T03:08:28;92.15;;;34.53;;
52494;SDS011;38405;53.212;5.660;2022-12-18T03:11:03;86.70;;;34.13;;
52494;SDS011;38405;53.212;5.660;2022-12-18T03:16:08;90.18;;;34.75;;
52494;SDS011;38405;53.212;5.660;2022-12-18T03:18:42;88.47;;;33.42;;
52494;SDS011;38405;53.212;5.660;2022-12-18T03:21:17;89.88;;;34.33;;
52494;SDS011;38405;53.212;5.660;2022-12-18T03:23:48;92.10;;;32.80;;
52494;SDS011;38405;53.212;5.660;2022-12-18T03:26:16;87.68;;;32.42;;
52494;SDS011;38405;53.212;5.660;2022-12-18T03:28:47;92.85;;;31.75;;
52494;SDS011;38405;53.212;5.660;2022-12-18T03:31:22;92.68;;;33.47;;
52494;SDS011;38405;53.212;5.660;2022-12-18T03:33:55;90.63;;;31.63;;
52494;SDS011;38405;53.212;5.660;2022-12-18T03:36:23;98.55;;;34.70;;
52494;SDS011;38405;53.212;5.660;2022-12-18T03:38:50;96.93;;;32.90;;
52494;SDS011;38405;53.212;5.660;2022-12-18T03:44:03;99.70;;;34.50;;
52494;SDS011;38405;53.212;5.660;2022-12-18T03:47:00;105.88;;;34.55;;
52494;SDS011;38405;53.212;5.660;2022-12-18T03:49:38;105.78;;;33.53;;
52494;SDS011;38405;53.212;5.660;2022-12-18T03:52:35;110.40;;;34.83;;
52494;SDS011;38405;53.212;5.660;2022-12-18T03:55:03;111.32;;;35.72;;
52494;SDS011;38405;53.212;5.660;2022-12-18T03:57:32;104.47;;;35.75;;
52494;SDS011;38405;53.212;5.660;2022-12-18T04:00:00;101.95;;;34.72;;
52494;SDS011;38405;53.212;5.660;2022-12-18T04:02:28;104.38;;;35.10;;
52494;SDS011;38405;53.212;5.660;2022-12-18T04:04:56;120.38;;;35.83;;
52494;SDS011;38405;53.212;5.660;2022-12-18T04:07:25;117.55;;;37.15;;
52494;SDS011;38405;53.212;5.660;2022-12-18T04:09:52;99.72;;;33.15;;
52494;SDS011;38405;53.212;5.660;2022-12-18T04:12:20;103.88;;;34.50;;
52494;SDS011;38405;53.212;5.660;2022-12-18T04:14:48;112.22;;;33.97;;
52494;SDS011;38405;53.212;5.660;2022-12-18T04:17:14;102.00;;;34.40;;
52494;SDS011;38405;53.212;5.660;2022-12-18T04:19:39;107.43;;;34.63;;
52494;SDS011;38405;53.212;5.660;2022-12-18T04:22:05;114.63;;;37.47;;
52494;SDS011;38405;53.212;5.660;2022-12-18T04:24:31;107.97;;;34.47;;
52494;SDS011;38405;53.212;5.660;2022-12-18T04:26:56;104.03;;;34.38;;
52494;SDS011;38405;53.212;5.660;2022-12-18T04:29:22;99.78;;;34.58;;
52494;SDS011;38405;53.212;5.660;2022-12-18T04:31:47;107.90;;;35.93;;
52494;SDS011;38405;53.212;5.660;2022-12-18T04:34:13;112.53;;;36.73;;
52494;SDS011;38405;53.212;5.660;2022-12-18T04:36:39;104.85;;;35.40;;
52494;SDS011;38405;53.212;5.660;2022-12-18T04:39:04;105.35;;;35.97;;
52494;SDS011;38405;53.212;5.660;2022-12-18T04:41:30;112.10;;;37.27;;
52494;SDS011;38405;53.212;5.660;2022-12-18T04:43:59;114.07;;;35.40;;
52494;SDS011;38405;53.212;5.660;2022-12-18T04:46:24;98.25;;;34.92;;
52494;SDS011;38405;53.212;5.660;2022-12-18T04:48:50;106.30;;;36.63;;
52494;SDS011;38405;53.212;5.660;2022-12-18T04:51:15;109.82;;;37.47;;
52494;SDS011;38405;53.212;5.660;2022-12-18T04:53:42;94.47;;;33.77;;
52494;SDS011;38405;53.212;5.660;2022-12-18T04:56:08;108.13;;;36.23;;
52494;SDS011;38405;53.212;5.660;2022-12-18T04:58:36;105.97;;;35.97;;
52494;SDS011;38405;53.212;5.660;2022-12-18T05:01:03;105.35;;;36.50;;
52494;SDS011;38405;53.212;5.660;2022-12-18T05:03:29;107.87;;;38.00;;
52494;SDS011;38405;53.212;5.660;2022-12-18T05:05:54;107.67;;;36.47;;
52494;SDS011;38405;53.212;5.660;2022-12-18T05:08:20;108.25;;;34.63;;
52494;SDS011;38405;53.212;5.660;2022-12-18T05:10:46;101.57;;;35.78;;
52494;SDS011;38405;53.212;5.660;2022-12-18T05:13:11;99.05;;;34.33;;
52494;SDS011;38405;53.212;5.660;2022-12-18T05:15:37;93.07;;;33.17;;
52494;SDS011;38405;53.212;5.660;2022-12-18T05:18:03;87.53;;;32.43;;
52494;SDS011;38405;53.212;5.660;2022-12-18T05:20:29;96.00;;;33.90;;
52494;SDS011;38405;53.212;5.660;2022-12-18T05:22:55;102.00;;;34.90;;
52494;SDS011;38405;53.212;5.660;2022-12-18T05:25:21;103.03;;;36.53;;
52494;SDS011;38405;53.212;5.660;2022-12-18T05:27:47;100.47;;;36.07;;
52494;SDS011;38405;53.212;5.660;2022-12-18T05:30:13;104.40;;;36.30;;
52494;SDS011;38405;53.212;5.660;2022-12-18T05:32:39;115.13;;;37.80;;
52494;SDS011;38405;53.212;5.660;2022-12-18T05:35:06;108.60;;;37.37;;
52494;SDS011;38405;53.212;5.660;2022-12-18T05:37:33;104.03;;;35.37;;
52494;SDS011;38405;53.212;5.660;2022-12-18T05:39:59;104.83;;;37.87;;
52494;SDS011;38405;53.212;5.660;2022-12-18T05:42:25;101.97;;;36.20;;
52494;SDS011;38405;53.212;5.660;2022-12-18T05:44:50;100.53;;;37.03;;
52494;SDS011;38405;53.212;5.660;2022-12-18T05:47:16;112.63;;;37.27;;
52494;SDS011;38405;53.212;5.660;2022-12-18T05:49:41;105.37;;;36.73;;
52494;SDS011;38405;53.212;5.660;2022-12-18T05:52:07;96.97;;;34.87;;
52494;SDS011;38405;53.212;5.660;2022-12-18T05:54:33;97.80;;;35.90;;
52494;SDS011;38405;53.212;5.660;2022-12-18T05:56:59;88.90;;;34.23;;
52494;SDS011;38405;53.212;5.660;2022-12-18T05:59:25;92.47;;;33.95;;
52494;SDS011;38405;53.212;5.660;2022-12-18T06:01:50;94.00;;;34.10;;
52494;SDS011;38405;53.212;5.660;2022-12-18T06:04:16;90.17;;;34.03;;
52494;SDS011;38405;53.212;5.660;2022-12-18T06:06:42;84.93;;;34.60;;
52494;SDS011;38405;53.212;5.660;2022-12-18T06:09:07;85.33;;;34.53;;
52494;SDS011;38405;53.212;5.660;2022-12-18T06:11:35;82.40;;;31.53;;
52494;SDS011;38405;53.212;5.660;2022-12-18T06:14:03;91.93;;;33.30;;
52494;SDS011;38405;53.212;5.660;2022-12-18T06:16:30;88.30;;;34.33;;
52494;SDS011;38405;53.212;5.660;2022-12-18T06:18:56;94.67;;;34.77;;
52494;SDS011;38405;53.212;5.660;2022-12-18T06:21:23;94.00;;;34.23;;
52494;SDS011;38405;53.212;5.660;2022-12-18T06:23:49;94.67;;;34.37;;
52494;SDS011;38405;53.212;5.660;2022-12-18T06:26:14;87.50;;;33.50;;
52494;SDS011;38405;53.212;5.660;2022-12-18T06:28:40;75.33;;;30.60;;
52494;SDS011;38405;53.212;5.660;2022-12-18T06:31:06;82.40;;;31.70;;
52494;SDS011;38405;53.212;5.660;2022-12-18T06:33:33;91.73;;;33.23;;
52494;SDS011;38405;53.212;5.660;2022-12-18T06:36:00;87.77;;;34.17;;
52494;SDS011;38405;53.212;5.660;2022-12-18T06:38:28;84.60;;;32.37;;
52494;SDS011;38405;53.212;5.660;2022-12-18T06:40:53;85.80;;;33.63;;
52494;SDS011;38405;53.212;5.660;2022-12-18T06:43:19;88.93;;;32.90;;
52494;SDS011;38405;53.212;5.660;2022-12-18T06:45:44;89.27;;;32.97;;
52494;SDS011;38405;53.212;5.660;2022-12-18T06:48:14;98.87;;;36.53;;
52494;SDS011;38405;53.212;5.660;2022-12-18T06:50:41;92.87;;;34.57;;
52494;SDS011;38405;53.212;5.660;2022-12-18T06:53:07;87.37;;;33.83;;
52494;SDS011;38405;53.212;5.660;2022-12-18T06:55:33;82.63;;;32.50;;
52494;SDS011;38405;53.212;5.660;2022-12-18T06:57:58;86.50;;;33.20;;
52494;SDS011;38405;53.212;5.660;2022-12-18T07:00:24;94.83;;;35.23;;
52494;SDS011;38405;53.212;5.660;2022-12-18T07:02:49;91.50;;;32.73;;
52494;SDS011;38405;53.212;5.660;2022-12-18T07:05:15;85.77;;;32.80;;
52494;SDS011;38405;53.212;5.660;2022-12-18T07:07:41;79.73;;;32.17;;
52494;SDS011;38405;53.212;5.660;2022-12-18T07:10:06;84.93;;;34.37;;
52494;SDS011;38405;53.212;5.660;2022-12-18T07:12:32;75.73;;;30.03;;
52494;SDS011;38405;53.212;5.660;2022-12-18T07:14:58;87.50;;;31.87;;
52494;SDS011;38405;53.212;5.660;2022-12-18T07:17:23;78.73;;;31.13;;
52494;SDS011;38405;53.212;5.660;2022-12-18T07:19:49;68.50;;;29.43;;
52494;SDS011;38405;53.212;5.660;2022-12-18T07:22:15;74.30;;;30.80;;
52494;SDS011;38405;53.212;5.660;2022-12-18T07:24:40;69.70;;;30.63;;
52494;SDS011;38405;53.212;5.660;2022-12-18T07:27:06;66.77;;;28.13;;
52494;SDS011;38405;53.212;5.660;2022-12-18T07:29:31;75.73;;;29.67;;
52494;SDS011;38405;53.212;5.660;2022-12-18T07:31:57;74.97;;;31.17;;
52494;SDS011;38405;53.212;5.660;2022-12-18T07:34:23;70.80;;;28.80;;
52494;SDS011;38405;53.212;5.660;2022-12-18T07:36:48;71.80;;;30.33;;
52494;SDS011;38405;53.212;5.660;2022-12-18T07:39:14;77.30;;;31.53;;
52494;SDS011;38405;53.212;5.660;2022-12-18T07:41:39;57.13;;;25.80;;
52494;SDS011;38405;53.212;5.660;2022-12-18T07:44:11;70.87;;;30.23;;
52494;SDS011;38405;53.212;5.660;2022-12-18T07:46:37;73.57;;;28.23;;
52494;SDS011;38405;53.212;5.660;2022-12-18T07:49:03;77.27;;;30.30;;
52494;SDS011;38405;53.212;5.660;2022-12-18T07:51:29;75.20;;;29.50;;
52494;SDS011;38405;53.212;5.660;2022-12-18T07:53:54;62.47;;;25.60;;
52494;SDS011;38405;53.212;5.660;2022-12-18T07:56:21;62.93;;;28.10;;
52494;SDS011;38405;53.212;5.660;2022-12-18T07:58:47;67.57;;;28.63;;
52494;SDS011;38405;53.212;5.660;2022-12-18T08:01:12;65.50;;;25.87;;
52494;SDS011;38405;53.212;5.660;2022-12-18T08:03:39;53.93;;;25.17;;
52494;SDS011;38405;53.212;5.660;2022-12-18T08:06:06;60.00;;;25.07;;
52494;SDS011;38405;53.212;5.660;2022-12-18T08:08:33;64.23;;;26.93;;
52494;SDS011;38405;53.212;5.660;2022-12-18T08:10:59;63.93;;;26.67;;
52494;SDS011;38405;53.212;5.660;2022-12-18T08:13:25;57.97;;;25.13;;
52494;SDS011;38405;53.212;5.660;2022-12-18T08:15:55;62.87;;;28.10;;
52494;SDS011;38405;53.212;5.660;2022-12-18T08:18:24;56.58;;;26.40;;
52494;SDS011;38405;53.212;5.660;2022-12-18T08:20:49;56.00;;;24.63;;
52494;SDS011;38405;53.212;5.660;2022-12-18T08:23:15;60.13;;;25.13;;
52494;SDS011;38405;53.212;5.660;2022-12-18T08:25:41;54.87;;;26.00;;
52494;SDS011;38405;53.212;5.660;2022-12-18T08:28:06;61.20;;;25.97;;
52494;SDS011;38405;53.212;5.660;2022-12-18T08:30:32;50.17;;;25.03;;
52494;SDS011;38405;53.212;5.660;2022-12-18T08:32:57;54.00;;;24.98;;
52494;SDS011;38405;53.212;5.660;2022-12-18T08:35:23;57.20;;;24.50;;
52494;SDS011;38405;53.212;5.660;2022-12-18T08:37:52;58.03;;;25.77;;
52494;SDS011;38405;53.212;5.660;2022-12-18T08:40:17;65.13;;;26.42;;
52494;SDS011;38405;53.212;5.660;2022-12-18T08:42:43;47.33;;;22.73;;
52494;SDS011;38405;53.212;5.660;2022-12-18T08:45:27;42.13;;;20.27;;
52494;SDS011;38405;53.212;5.660;2022-12-18T08:47:52;56.88;;;26.38;;
52494;SDS011;38405;53.212;5.660;2022-12-18T08:50:19;56.53;;;26.37;;
52494;SDS011;38405;53.212;5.660;2022-12-18T08:52:45;56.47;;;25.13;;
52494;SDS011;38405;53.212;5.660;2022-12-18T08:55:10;49.00;;;23.00;;
52494;SDS011;38405;53.212;5.660;2022-12-18T08:57:36;52.00;;;23.92;;
52494;SDS011;38405;53.212;5.660;2022-12-18T09:00:02;52.78;;;24.90;;
52494;SDS011;38405;53.212;5.660;2022-12-18T09:02:29;57.63;;;26.48;;
52494;SDS011;38405;53.212;5.660;2022-12-18T09:04:54;51.40;;;23.60;;
52494;SDS011;38405;53.212;5.660;2022-12-18T09:07:20;51.28;;;25.10;;
52494;SDS011;38405;53.212;5.660;2022-12-18T09:09:45;57.85;;;25.17;;
52494;SDS011;38405;53.212;5.660;2022-12-18T09:12:11;58.13;;;25.17;;
52494;SDS011;38405;53.212;5.660;2022-12-18T09:14:37;50.88;;;23.83;;
52494;SDS011;38405;53.212;5.660;2022-12-18T09:17:02;51.45;;;24.25;;
52494;SDS011;38405;53.212;5.660;2022-12-18T09:19:28;54.03;;;24.88;;
52494;SDS011;38405;53.212;5.660;2022-12-18T09:21:54;51.72;;;24.80;;
52494;SDS011;38405;53.212;5.660;2022-12-18T09:24:19;53.90;;;25.10;;
52494;SDS011;38405;53.212;5.660;2022-12-18T09:26:45;49.90;;;24.77;;
52494;SDS011;38405;53.212;5.660;2022-12-18T09:29:11;43.90;;;21.10;;
52494;SDS011;38405;53.212;5.660;2022-12-18T09:31:36;45.88;;;23.50;;
52494;SDS011;38405;53.212;5.660;2022-12-18T09:34:03;49.78;;;24.30;;
52494;SDS011;38405;53.212;5.660;2022-12-18T09:36:29;42.90;;;21.45;;
52494;SDS011;38405;53.212;5.660;2022-12-18T09:38:54;46.05;;;22.23;;
52494;SDS011;38405;53.212;5.660;2022-12-18T09:43:56;44.38;;;21.77;;
52494;SDS011;38405;53.212;5.660;2022-12-18T09:46:27;40.85;;;21.48;;
52494;SDS011;38405;53.212;5.660;2022-12-18T09:49:00;39.17;;;21.38;;
52494;SDS011;38405;53.212;5.660;2022-12-18T09:51:36;36.13;;;19.80;;
52494;SDS011;38405;53.212;5.660;2022-12-18T09:54:10;35.63;;;18.92;;
52494;SDS011;38405;53.212;5.660;2022-12-18T09:56:49;34.38;;;17.17;;
52494;SDS011;38405;53.212;5.660;2022-12-18T09:59:20;33.45;;;18.00;;
52494;SDS011;38405;53.212;5.660;2022-12-18T10:01:52;32.35;;;17.52;;
52494;SDS011;38405;53.212;5.660;2022-12-18T10:04:17;30.52;;;16.15;;
52494;SDS011;38405;53.212;5.660;2022-12-18T10:06:55;29.70;;;16.23;;
52494;SDS011;38405;53.212;5.660;2022-12-18T10:12:09;32.78;;;16.65;;
52494;SDS011;38405;53.212;5.660;2022-12-18T10:14:42;34.08;;;16.73;;
52494;SDS011;38405;53.212;5.660;2022-12-18T10:20:19;27.92;;;16.48;;
52494;SDS011;38405;53.212;5.660;2022-12-18T10:25:49;29.95;;;16.65;;
52494;SDS011;38405;53.212;5.660;2022-12-18T10:28:16;28.05;;;14.80;;
52494;SDS011;38405;53.212;5.660;2022-12-18T10:30:44;28.90;;;15.50;;
52494;SDS011;38405;53.212;5.660;2022-12-18T10:33:18;30.95;;;14.93;;
52494;SDS011;38405;53.212;5.660;2022-12-18T10:35:46;31.25;;;15.88;;
52494;SDS011;38405;53.212;5.660;2022-12-18T10:43:29;29.95;;;16.23;;
52494;SDS011;38405;53.212;5.660;2022-12-18T10:48:34;35.13;;;16.63;;
52494;SDS011;38405;53.212;5.660;2022-12-18T10:51:05;33.25;;;16.55;;
52494;SDS011;38405;53.212;5.660;2022-12-18T10:53:32;34.50;;;17.23;;
52494;SDS011;38405;53.212;5.660;2022-12-18T10:55:59;33.05;;;17.35;;
52494;SDS011;38405;53.212;5.660;2022-12-18T11:03:30;27.70;;;14.88;;
52494;SDS011;38405;53.212;5.660;2022-12-18T11:08:43;26.58;;;14.52;;
52494;SDS011;38405;53.212;5.660;2022-12-18T11:11:22;24.45;;;14.30;;
52494;SDS011;38405;53.212;5.660;2022-12-18T11:13:56;23.63;;;13.23;;
52494;SDS011;38405;53.212;5.660;2022-12-18T11:16:26;26.30;;;13.90;;
52494;SDS011;38405;53.212;5.660;2022-12-18T11:18:59;24.95;;;13.63;;
52494;SDS011;38405;53.212;5.660;2022-12-18T11:21:47;23.45;;;12.18;;
52494;SDS011;38405;53.212;5.660;2022-12-18T11:24:32;20.08;;;12.52;;
52494;SDS011;38405;53.212;5.660;2022-12-18T11:27:00;22.73;;;12.80;;
52494;SDS011;38405;53.212;5.660;2022-12-18T11:29:30;17.33;;;10.88;;
52494;SDS011;38405;53.212;5.660;2022-12-18T11:32:24;23.63;;;11.70;;
52494;SDS011;38405;53.212;5.660;2022-12-18T11:35:47;18.83;;;10.82;;
52494;SDS011;38405;53.212;5.660;2022-12-18T11:38:11;22.00;;;13.43;;
52494;SDS011;38405;53.212;5.660;2022-12-18T11:40:38;21.83;;;12.52;;
52494;SDS011;38405;53.212;5.660;2022-12-18T11:43:11;18.38;;;11.50;;
52494;SDS011;38405;53.212;5.660;2022-12-18T11:49:08;20.35;;;11.63;;
52494;SDS011;38405;53.212;5.660;2022-12-18T11:51:41;20.75;;;11.85;;
52494;SDS011;38405;53.212;5.660;2022-12-18T11:54:23;20.75;;;11.93;;
52494;SDS011;38405;53.212;5.660;2022-12-18T11:56:56;20.90;;;11.85;;
52494;SDS011;38405;53.212;5.660;2022-12-18T11:59:50;19.65;;;12.10;;
52494;SDS011;38405;53.212;5.660;2022-12-18T12:16:14;19.65;;;11.10;;
52494;SDS011;38405;53.212;5.660;2022-12-18T12:18:50;17.33;;;10.75;;
52494;SDS011;38405;53.212;5.660;2022-12-18T12:21:31;18.00;;;10.95;;
52494;SDS011;38405;53.212;5.660;2022-12-18T12:38:04;19.10;;;10.30;;
52494;SDS011;38405;53.212;5.660;2022-12-18T12:40:38;18.98;;;10.82;;
52494;SDS011;38405;53.212;5.660;2022-12-18T12:43:54;17.88;;;11.02;;
52494;SDS011;38405;53.212;5.660;2022-12-18T12:46:12;16.80;;;9.85;;
52494;SDS011;38405;53.212;5.660;2022-12-18T12:48:47;20.63;;;10.85;;
52494;SDS011;38405;53.212;5.660;2022-12-18T12:51:17;18.85;;;10.73;;
52494;SDS011;38405;53.212;5.660;2022-12-18T12:53:46;19.42;;;10.20;;
52494;SDS011;38405;53.212;5.660;2022-12-18T12:56:14;17.80;;;10.40;;
52494;SDS011;38405;53.212;5.660;2022-12-18T13:34:23;19.05;;;10.45;;
52494;SDS011;38405;53.212;5.660;2022-12-18T13:36:55;15.43;;;10.02;;
52494;SDS011;38405;53.212;5.660;2022-12-18T13:39:39;16.55;;;10.55;;
52494;SDS011;38405;53.212;5.660;2022-12-18T13:44:37;17.55;;;10.45;;
52494;SDS011;38405;53.212;5.660;2022-12-18T13:50:09;17.45;;;10.40;;
52494;SDS011;38405;53.212;5.660;2022-12-18T13:52:44;19.42;;;10.93;;
52494;SDS011;38405;53.212;5.660;2022-12-18T13:55:14;17.98;;;10.60;;
52494;SDS011;38405;53.212;5.660;2022-12-18T13:57:43;17.05;;;10.63;;
52494;SDS011;38405;53.212;5.660;2022-12-18T14:00:25;16.17;;;10.60;;
52494;SDS011;38405;53.212;5.660;2022-12-18T14:02:53;18.48;;;9.30;;
52494;SDS011;38405;53.212;5.660;2022-12-18T14:05:24;17.85;;;11.35;;
52494;SDS011;38405;53.212;5.660;2022-12-18T14:07:51;17.52;;;10.00;;
52494;SDS011;38405;53.212;5.660;2022-12-18T14:10:18;14.90;;;9.63;;
52494;SDS011;38405;53.212;5.660;2022-12-18T14:12:46;17.17;;;9.70;;
52494;SDS011;38405;53.212;5.660;2022-12-18T14:17:58;16.63;;;10.43;;
52494;SDS011;38405;53.212;5.660;2022-12-18T14:20:27;14.77;;;9.73;;
52494;SDS011;38405;53.212;5.660;2022-12-18T14:22:55;15.18;;;8.63;;
52494;SDS011;38405;53.212;5.660;2022-12-18T14:25:23;15.65;;;9.05;;
52494;SDS011;38405;53.212;5.660;2022-12-18T14:30:35;14.10;;;9.10;;
52494;SDS011;38405;53.212;5.660;2022-12-18T14:33:12;12.25;;;8.55;;
52494;SDS011;38405;53.212;5.660;2022-12-18T14:35:40;14.73;;;9.60;;
52494;SDS011;38405;53.212;5.660;2022-12-18T14:38:24;15.98;;;9.57;;
52494;SDS011;38405;53.212;5.660;2022-12-18T14:40:56;15.73;;;9.48;;
52494;SDS011;38405;53.212;5.660;2022-12-18T14:43:36;16.45;;;9.27;;
52494;SDS011;38405;53.212;5.660;2022-12-18T14:46:04;11.80;;;8.50;;
52494;SDS011;38405;53.212;5.660;2022-12-18T14:48:50;13.82;;;9.07;;
52494;SDS011;38405;53.212;5.660;2022-12-18T14:51:23;12.43;;;8.52;;
52494;SDS011;38405;53.212;5.660;2022-12-18T14:53:57;15.20;;;8.75;;
52494;SDS011;38405;53.212;5.660;2022-12-18T14:56:31;13.57;;;8.07;;
52494;SDS011;38405;53.212;5.660;2022-12-18T14:59:03;13.73;;;8.87;;
52494;SDS011;38405;53.212;5.660;2022-12-18T15:01:37;12.10;;;8.10;;
52494;SDS011;38405;53.212;5.660;2022-12-18T15:04:23;16.13;;;7.72;;
52494;SDS011;38405;53.212;5.660;2022-12-18T15:06:50;13.57;;;8.05;;
52494;SDS011;38405;53.212;5.660;2022-12-18T15:09:43;13.15;;;7.85;;
52494;SDS011;38405;53.212;5.660;2022-12-18T15:12:40;13.02;;;8.23;;
52494;SDS011;38405;53.212;5.660;2022-12-18T15:26:02;13.52;;;8.27;;
52494;SDS011;38405;53.212;5.660;2022-12-18T15:33:36;11.40;;;8.05;;
52494;SDS011;38405;53.212;5.660;2022-12-18T15:36:14;10.05;;;7.22;;
52494;SDS011;38405;53.212;5.660;2022-12-18T15:38:41;12.05;;;8.07;;
52494;SDS011;38405;53.212;5.660;2022-12-18T15:41:18;10.63;;;7.20;;
52494;SDS011;38405;53.212;5.660;2022-12-18T15:43:46;11.90;;;8.10;;
52494;SDS011;38405;53.212;5.660;2022-12-18T15:46:17;10.43;;;7.03;;
52494;SDS011;38405;53.212;5.660;2022-12-18T15:48:48;12.82;;;7.30;;
52494;SDS011;38405;53.212;5.660;2022-12-18T15:51:36;12.82;;;7.82;;
52494;SDS011;38405;53.212;5.660;2022-12-18T15:54:04;12.13;;;7.53;;
52494;SDS011;38405;53.212;5.660;2022-12-18T15:56:34;11.85;;;7.97;;
52494;SDS011;38405;53.212;5.660;2022-12-18T15:59:18;13.82;;;8.10;;
52494;SDS011;38405;53.212;5.660;2022-12-18T16:01:49;12.27;;;8.15;;
52494;SDS011;38405;53.212;5.660;2022-12-18T16:04:17;11.18;;;7.32;;
52494;SDS011;38405;53.212;5.660;2022-12-18T16:06:48;9.75;;;6.30;;
52494;SDS011;38405;53.212;5.660;2022-12-18T16:09:14;11.73;;;7.78;;
52494;SDS011;38405;53.212;5.660;2022-12-18T16:11:41;12.23;;;7.22;;
52494;SDS011;38405;53.212;5.660;2022-12-18T16:16:52;18.00;;;7.78;;
52494;SDS011;38405;53.212;5.660;2022-12-18T16:19:30;13.60;;;7.78;;
52494;SDS011;38405;53.212;5.660;2022-12-18T16:21:56;15.48;;;7.57;;
52494;SDS011;38405;53.212;5.660;2022-12-18T16:24:24;11.52;;;7.35;;
52494;SDS011;38405;53.212;5.660;2022-12-18T16:26:52;14.50;;;8.18;;
52494;SDS011;38405;53.212;5.660;2022-12-18T16:29:19;12.48;;;7.47;;
52494;SDS011;38405;53.212;5.660;2022-12-18T16:31:51;12.07;;;7.78;;
52494;SDS011;38405;53.212;5.660;2022-12-18T16:36:52;11.98;;;8.07;;
52494;SDS011;38405;53.212;5.660;2022-12-18T16:39:19;14.93;;;8.73;;
52494;SDS011;38405;53.212;5.660;2022-12-18T16:41:45;12.05;;;8.40;;
52494;SDS011;38405;53.212;5.660;2022-12-18T16:44:11;12.55;;;7.85;;
52494;SDS011;38405;53.212;5.660;2022-12-18T16:46:37;13.43;;;7.80;;
52494;SDS011;38405;53.212;5.660;2022-12-18T16:49:04;13.23;;;8.40;;
52494;SDS011;38405;53.212;5.660;2022-12-18T16:51:33;12.80;;;8.27;;
52494;SDS011;38405;53.212;5.660;2022-12-18T16:53:58;12.88;;;8.18;;
52494;SDS011;38405;53.212;5.660;2022-12-18T16:56:24;14.85;;;8.35;;
52494;SDS011;38405;53.212;5.660;2022-12-18T16:58:54;11.88;;;7.60;;